Forside
METAR-TAF:

METAR-TAF

Lufthavne :

Owatonna Degner Regional Airport

Owatonna, Minnesota, USA

Breddekreds: 44-07N, længdekreds: 093-15W, højde: 350 m

Aktuelle vejr

Denne rapport blev lavet for 28 minutter siden, kl. 11:53 UTC
Vind 7 kt fra sydøst
Temperatur 16°C
Fugtighed 88%
Tryk 1017 hPa
Sigt: 16.1 km
skyfri

METAR: KOWA 121153Z AUTO 13007KT 10SM CLR 16/14 A3003 RMK AO2 LTG DSNT W

Tid: 07:21 (12:21 UTC)


TAF: fraværende

Vejrobservationer og prognoser fra mere end 4000 lufthavne (METAR og TAF).

De gule og røde prikker repræsenterer de meteorologiske stationer.

Flyt musen over at se navnet på stationen.

Så klik over at se vejr observationer og prognoser.

At skifte det kort: Klik på de grønne knapper med et sort kors for at zoome ind; på den grønne knap med en bindestreg for at zoome ud; eller på de grønne pile for tilstødende kort.


METAR-TAF: